sensor_id;sensor_type;location;lat;lon;timestamp;pressure;altitude;pressure_sealevel;temperature;humidity
10014;BME280;45684;48.358;10.746;2023-01-31T00:01:58;96926.09;;;2.32;100.00
10014;BME280;45684;48.358;10.746;2023-01-31T00:04:26;96925.03;;;2.33;100.00
10014;BME280;45684;48.358;10.746;2023-01-31T00:06:54;96925.03;;;2.33;100.00
10014;BME280;45684;48.358;10.746;2023-01-31T00:09:21;96927.25;;;2.36;100.00
10014;BME280;45684;48.358;10.746;2023-01-31T00:11:51;96933.63;;;2.35;100.00
10014;BME280;45684;48.358;10.746;2023-01-31T00:14:19;96930.38;;;2.33;100.00
10014;BME280;45684;48.358;10.746;2023-01-31T00:16:47;96924.00;;;2.34;100.00
10014;BME280;45684;48.358;10.746;2023-01-31T00:19:15;96928.56;;;2.34;100.00
10014;BME280;45684;48.358;10.746;2023-01-31T00:21:44;96925.88;;;2.34;100.00
10014;BME280;45684;48.358;10.746;2023-01-31T00:24:12;96934.69;;;2.34;100.00
10014;BME280;45684;48.358;10.746;2023-01-31T00:26:41;96929.34;;;2.34;100.00
10014;BME280;45684;48.358;10.746;2023-01-31T00:29:10;96929.56;;;2.33;100.00
10014;BME280;45684;48.358;10.746;2023-01-31T00:31:38;96929.34;;;2.34;100.00
10014;BME280;45684;48.358;10.746;2023-01-31T00:34:06;96926.34;;;2.30;100.00
10014;BME280;45684;48.358;10.746;2023-01-31T00:36:34;96929.03;;;2.30;100.00
10014;BME280;45684;48.358;10.746;2023-01-31T00:39:05;96928.22;;;2.30;100.00
10014;BME280;45684;48.358;10.746;2023-01-31T00:41:35;96933.22;;;2.26;100.00
10014;BME280;45684;48.358;10.746;2023-01-31T00:44:05;96927.91;;;2.26;100.00
10014;BME280;45684;48.358;10.746;2023-01-31T00:46:34;96924.41;;;2.26;100.00
10014;BME280;45684;48.358;10.746;2023-01-31T00:49:03;96939.63;;;2.25;100.00
10014;BME280;45684;48.358;10.746;2023-01-31T00:51:31;96938.81;;;2.25;100.00
10014;BME280;45684;48.358;10.746;2023-01-31T00:54:02;96926.03;;;2.27;100.00
10014;BME280;45684;48.358;10.746;2023-01-31T00:56:30;96930.56;;;2.26;100.00
10014;BME280;45684;48.358;10.746;2023-01-31T00:58:58;96925.22;;;2.26;100.00
10014;BME280;45684;48.358;10.746;2023-01-31T01:01:28;96929.50;;;2.27;100.00
10014;BME280;45684;48.358;10.746;2023-01-31T01:03:58;96938.03;;;2.24;100.00
10014;BME280;45684;48.358;10.746;2023-01-31T01:06:31;96937.44;;;2.22;100.00
10014;BME280;45684;48.358;10.746;2023-01-31T01:09:00;96945.78;;;2.26;100.00
10014;BME280;45684;48.358;10.746;2023-01-31T01:11:29;96944.09;;;2.20;100.00
10014;BME280;45684;48.358;10.746;2023-01-31T01:13:59;96940.69;;;2.24;100.00
10014;BME280;45684;48.358;10.746;2023-01-31T01:16:31;96939.03;;;2.23;100.00
10014;BME280;45684;48.358;10.746;2023-01-31T01:19:04;96948.44;;;2.26;100.00
10014;BME280;45684;48.358;10.746;2023-01-31T01:21:32;96938.81;;;2.25;100.00
10014;BME280;45684;48.358;10.746;2023-01-31T01:24:05;96939.31;;;2.22;100.00
10014;BME280;45684;48.358;10.746;2023-01-31T01:26:33;96945.94;;;2.19;100.00
10014;BME280;45684;48.358;10.746;2023-01-31T01:29:04;96947.78;;;2.19;100.00
10014;BME280;45684;48.358;10.746;2023-01-31T01:31:32;96942.94;;;2.16;100.00
10014;BME280;45684;48.358;10.746;2023-01-31T01:34:05;96940.13;;;2.06;100.00
10014;BME280;45684;48.358;10.746;2023-01-31T01:36:35;96939.88;;;2.07;100.00
10014;BME280;45684;48.358;10.746;2023-01-31T01:39:04;96945.94;;;2.02;100.00
10014;BME280;45684;48.358;10.746;2023-01-31T01:41:35;96939.47;;;1.98;100.00
10014;BME280;45684;48.358;10.746;2023-01-31T01:44:39;96940.53;;;1.97;100.00
10014;BME280;45684;48.358;10.746;2023-01-31T01:46:52;96938.31;;;1.94;100.00
10014;BME280;45684;48.358;10.746;2023-01-31T01:49:28;96933.50;;;1.91;100.00
10014;BME280;45684;48.358;10.746;2023-01-31T01:51:59;96930.00;;;1.91;100.00
10014;BME280;45684;48.358;10.746;2023-01-31T01:54:35;96936.88;;;1.87;100.00
10014;BME280;45684;48.358;10.746;2023-01-31T01:57:06;96933.31;;;1.81;100.00
10014;BME280;45684;48.358;10.746;2023-01-31T01:59:38;96937.03;;;1.80;100.00
10014;BME280;45684;48.358;10.746;2023-01-31T02:02:10;96934.09;;;1.82;100.00
10014;BME280;45684;48.358;10.746;2023-01-31T02:04:46;96940.75;;;1.79;100.00
10014;BME280;45684;48.358;10.746;2023-01-31T02:07:16;96950.34;;;1.80;100.00
10014;BME280;45684;48.358;10.746;2023-01-31T02:09:52;96944.94;;;1.75;100.00
10014;BME280;45684;48.358;10.746;2023-01-31T02:12:21;96941.22;;;1.76;100.00
10014;BME280;45684;48.358;10.746;2023-01-31T02:14:54;96949.13;;;1.71;100.00
10014;BME280;45684;48.358;10.746;2023-01-31T02:17:22;96952.38;;;1.73;100.00
10014;BME280;45684;48.358;10.746;2023-01-31T02:20:02;96952.84;;;1.70;100.00
10014;BME280;45684;48.358;10.746;2023-01-31T02:22:38;96963.97;;;1.67;100.00
10014;BME280;45684;48.358;10.746;2023-01-31T02:25:34;96959.38;;;1.62;100.00
10014;BME280;45684;48.358;10.746;2023-01-31T02:28:40;96960.75;;;1.65;100.00
10014;BME280;45684;48.358;10.746;2023-01-31T02:31:37;96972.69;;;1.62;100.00
10014;BME280;45684;48.358;10.746;2023-01-31T02:34:18;96964.84;;;1.56;100.00
10014;BME280;45684;48.358;10.746;2023-01-31T02:37:00;96961.59;;;1.53;100.00
10014;BME280;45684;48.358;10.746;2023-01-31T02:39:37;96964.44;;;1.47;100.00
10014;BME280;45684;48.358;10.746;2023-01-31T02:42:17;96962.81;;;1.46;100.00
10014;BME280;45684;48.358;10.746;2023-01-31T02:44:55;96960.16;;;1.46;100.00
10014;BME280;45684;48.358;10.746;2023-01-31T02:47:31;96969.41;;;1.43;100.00
10014;BME280;45684;48.358;10.746;2023-01-31T02:50:04;96970.13;;;1.39;100.00
10014;BME280;45684;48.358;10.746;2023-01-31T02:52:38;96985.31;;;1.38;100.00
10014;BME280;45684;48.358;10.746;2023-01-31T02:55:14;96982.78;;;1.32;100.00
10014;BME280;45684;48.358;10.746;2023-01-31T02:58:04;96985.47;;;1.32;100.00
10014;BME280;45684;48.358;10.746;2023-01-31T03:00:36;96985.69;;;1.30;100.00
10014;BME280;45684;48.358;10.746;2023-01-31T03:03:07;96984.06;;;1.29;100.00
10014;BME280;45684;48.358;10.746;2023-01-31T03:05:39;96981.19;;;1.31;100.00
10014;BME280;45684;48.358;10.746;2023-01-31T03:08:09;96978.97;;;1.27;100.00
10014;BME280;45684;48.358;10.746;2023-01-31T03:10:54;96979.44;;;1.24;100.00
10014;BME280;45684;48.358;10.746;2023-01-31T03:13:38;96982.09;;;1.24;100.00
10014;BME280;45684;48.358;10.746;2023-01-31T03:16:17;96977.03;;;1.23;100.00
10014;BME280;45684;48.358;10.746;2023-01-31T03:19:08;96981.31;;;1.24;100.00
10014;BME280;45684;48.358;10.746;2023-01-31T03:21:44;96976.69;;;1.19;100.00
10014;BME280;45684;48.358;10.746;2023-01-31T03:24:15;96980.88;;;1.15;100.00
10014;BME280;45684;48.358;10.746;2023-01-31T03:26:44;96982.97;;;1.13;100.00
10014;BME280;45684;48.358;10.746;2023-01-31T03:29:14;96996.50;;;1.12;100.00
10014;BME280;45684;48.358;10.746;2023-01-31T03:31:47;96995.69;;;1.11;100.00
10014;BME280;45684;48.358;10.746;2023-01-31T03:34:16;96992.72;;;1.08;100.00
10014;BME280;45684;48.358;10.746;2023-01-31T03:36:52;97001.25;;;1.10;100.00
10014;BME280;45684;48.358;10.746;2023-01-31T03:39:48;97001.16;;;1.05;100.00
10014;BME280;45684;48.358;10.746;2023-01-31T03:42:23;97009.59;;;1.01;100.00
10014;BME280;45684;48.358;10.746;2023-01-31T03:44:57;97008.00;;;1.00;100.00
10014;BME280;45684;48.358;10.746;2023-01-31T03:47:30;97009.50;;;0.96;100.00
10014;BME280;45684;48.358;10.746;2023-01-31T03:50:04;97011.34;;;0.96;100.00
10014;BME280;45684;48.358;10.746;2023-01-31T03:52:38;97017.13;;;0.93;100.00
10014;BME280;45684;48.358;10.746;2023-01-31T03:55:12;97023.50;;;0.92;100.00
10014;BME280;45684;48.358;10.746;2023-01-31T03:57:44;97023.66;;;0.85;100.00
10014;BME280;45684;48.358;10.746;2023-01-31T04:00:16;97022.50;;;0.81;100.00
10014;BME280;45684;48.358;10.746;2023-01-31T04:02:54;97034.63;;;0.77;100.00
10014;BME280;45684;48.358;10.746;2023-01-31T04:05:28;97034.28;;;0.73;100.00
10014;BME280;45684;48.358;10.746;2023-01-31T04:08:01;97038.91;;;0.78;100.00
10014;BME280;45684;48.358;10.746;2023-01-31T04:10:31;97040.41;;;0.74;100.00
10014;BME280;45684;48.358;10.746;2023-01-31T04:12:59;97054.53;;;0.74;100.00
10014;BME280;45684;48.358;10.746;2023-01-31T04:15:28;97046.78;;;0.73;100.00
10014;BME280;45684;48.358;10.746;2023-01-31T04:17:56;97044.94;;;0.73;100.00
10014;BME280;45684;48.358;10.746;2023-01-31T04:20:24;97053.72;;;0.74;100.00
10014;BME280;45684;48.358;10.746;2023-01-31T04:22:51;97063.91;;;0.77;100.00
10014;BME280;45684;48.358;10.746;2023-01-31T04:25:21;97073.53;;;0.78;100.00
10014;BME280;45684;48.358;10.746;2023-01-31T04:27:49;97085.22;;;0.77;100.00
10014;BME280;45684;48.358;10.746;2023-01-31T04:30:17;97076.19;;;0.78;100.00
10014;BME280;45684;48.358;10.746;2023-01-31T04:32:47;97082.31;;;0.79;100.00
10014;BME280;45684;48.358;10.746;2023-01-31T04:35:14;97074.69;;;0.82;100.00
10014;BME280;45684;48.358;10.746;2023-01-31T04:37:43;97081.63;;;0.83;100.00
10014;BME280;45684;48.358;10.746;2023-01-31T04:40:12;97080.81;;;0.83;100.00
10014;BME280;45684;48.358;10.746;2023-01-31T04:42:42;97078.25;;;0.88;100.00
10014;BME280;45684;48.358;10.746;2023-01-31T04:45:10;97085.44;;;0.87;100.00
10014;BME280;45684;48.358;10.746;2023-01-31T04:47:39;97075.16;;;0.91;100.00
10014;BME280;45684;48.358;10.746;2023-01-31T04:50:08;97081.28;;;0.91;100.00
10014;BME280;45684;48.358;10.746;2023-01-31T04:52:36;97082.31;;;0.90;100.00
10014;BME280;45684;48.358;10.746;2023-01-31T04:55:05;97085.09;;;0.95;100.00
10014;BME280;45684;48.358;10.746;2023-01-31T04:57:33;97090.88;;;0.92;100.00
10014;BME280;45684;48.358;10.746;2023-01-31T05:00:09;97093.53;;;0.92;100.00
10014;BME280;45684;48.358;10.746;2023-01-31T05:02:39;97089.38;;;0.96;100.00
10014;BME280;45684;48.358;10.746;2023-01-31T05:05:08;97085.47;;;0.99;100.00
10014;BME280;45684;48.358;10.746;2023-01-31T05:07:38;97094.38;;;1.05;100.00
10014;BME280;45684;48.358;10.746;2023-01-31T05:10:07;97084.97;;;1.02;100.00
10014;BME280;45684;48.358;10.746;2023-01-31T05:12:35;97089.50;;;1.01;100.00
10014;BME280;45684;48.358;10.746;2023-01-31T05:15:06;97087.41;;;1.04;100.00
10014;BME280;45684;48.358;10.746;2023-01-31T05:17:39;97086.25;;;0.99;100.00
10014;BME280;45684;48.358;10.746;2023-01-31T05:20:17;97086.25;;;0.99;100.00
10014;BME280;45684;48.358;10.746;2023-01-31T05:22:45;97093.78;;;1.02;100.00
10014;BME280;45684;48.358;10.746;2023-01-31T05:25:14;97096.91;;;0.99;100.00
10014;BME280;45684;48.358;10.746;2023-01-31T05:27:42;97105.72;;;1.00;100.00
10014;BME280;45684;48.358;10.746;2023-01-31T05:30:12;97107.56;;;0.99;100.00
10014;BME280;45684;48.358;10.746;2023-01-31T05:32:40;97105.00;;;1.05;100.00
10014;BME280;45684;48.358;10.746;2023-01-31T05:35:11;97099.09;;;1.02;100.00
10014;BME280;45684;48.358;10.746;2023-01-31T05:37:44;97108.25;;;1.07;100.00
10014;BME280;45684;48.358;10.746;2023-01-31T05:40:17;97101.31;;;1.06;100.00
10014;BME280;45684;48.358;10.746;2023-01-31T05:42:51;97112.56;;;1.08;100.00
10014;BME280;45684;48.358;10.746;2023-01-31T05:45:22;97117.03;;;1.07;100.00
10014;BME280;45684;48.358;10.746;2023-01-31T05:47:50;97112.31;;;1.09;100.00
10014;BME280;45684;48.358;10.746;2023-01-31T05:50:18;97105.13;;;1.10;100.00
10014;BME280;45684;48.358;10.746;2023-01-31T05:52:51;97100.38;;;1.12;100.00
10014;BME280;45684;48.358;10.746;2023-01-31T05:55:19;97097.59;;;1.07;100.00
10014;BME280;45684;48.358;10.746;2023-01-31T05:57:47;97097.38;;;1.08;100.00
10014;BME280;45684;48.358;10.746;2023-01-31T06:00:24;97104.88;;;1.11;100.00
10014;BME280;45684;48.358;10.746;2023-01-31T06:02:56;97095.03;;;1.12;100.00
10014;BME280;45684;48.358;10.746;2023-01-31T06:05:24;97085.69;;;1.09;100.00
10014;BME280;45684;48.358;10.746;2023-01-31T06:07:52;97082.31;;;1.14;100.00
10014;BME280;45684;48.358;10.746;2023-01-31T06:10:20;97093.22;;;1.12;100.00
10014;BME280;45684;48.358;10.746;2023-01-31T06:12:48;97086.84;;;1.13;100.00
10014;BME280;45684;48.358;10.746;2023-01-31T06:15:16;97088.69;;;1.13;100.00
10014;BME280;45684;48.358;10.746;2023-01-31T06:17:46;97083.38;;;1.13;100.00
10014;BME280;45684;48.358;10.746;2023-01-31T06:20:14;97086.03;;;1.13;100.00
10014;BME280;45684;48.358;10.746;2023-01-31T06:22:42;97089.25;;;1.15;100.00
10014;BME280;45684;48.358;10.746;2023-01-31T06:25:10;97086.84;;;1.13;100.00
10014;BME280;45684;48.358;10.746;2023-01-31T06:27:38;97091.34;;;1.13;100.00
10014;BME280;45684;48.358;10.746;2023-01-31T06:30:07;97104.06;;;1.11;100.00
10014;BME280;45684;48.358;10.746;2023-01-31T06:32:37;97103.63;;;1.14;100.00
10014;BME280;45684;48.358;10.746;2023-01-31T06:35:07;97096.69;;;1.13;100.00
10014;BME280;45684;48.358;10.746;2023-01-31T06:37:34;97112.41;;;1.14;100.00
10014;BME280;45684;48.358;10.746;2023-01-31T06:40:03;97119.59;;;1.14;100.00
10014;BME280;45684;48.358;10.746;2023-01-31T06:42:31;97120.66;;;1.13;100.00
10014;BME280;45684;48.358;10.746;2023-01-31T06:44:58;97123.31;;;1.13;100.00
10014;BME280;45684;48.358;10.746;2023-01-31T06:47:26;97113.69;;;1.12;100.00
10014;BME280;45684;48.358;10.746;2023-01-31T06:49:54;97123.06;;;1.14;100.00
10014;BME280;45684;48.358;10.746;2023-01-31T06:52:26;97117.41;;;1.11;100.00
10014;BME280;45684;48.358;10.746;2023-01-31T06:54:56;97121.47;;;1.13;100.00
10014;BME280;45684;48.358;10.746;2023-01-31T06:57:24;97117.19;;;1.12;100.00
10014;BME280;45684;48.358;10.746;2023-01-31T06:59:51;97124.34;;;1.12;100.00
10014;BME280;45684;48.358;10.746;2023-01-31T07:02:21;97131.31;;;1.13;100.00
10014;BME280;45684;48.358;10.746;2023-01-31T07:04:50;97132.69;;;1.15;100.00
10014;BME280;45684;48.358;10.746;2023-01-31T07:07:18;97132.69;;;1.15;100.00
10014;BME280;45684;48.358;10.746;2023-01-31T07:09:50;97128.16;;;1.16;100.00
10014;BME280;45684;48.358;10.746;2023-01-31T07:12:19;97135.00;;;1.12;100.00
10014;BME280;45684;48.358;10.746;2023-01-31T07:14:47;97126.78;;;1.13;100.00
10014;BME280;45684;48.358;10.746;2023-01-31T07:17:15;97126.53;;;1.15;100.00
10014;BME280;45684;48.358;10.746;2023-01-31T07:19:43;97131.88;;;1.15;100.00
10014;BME280;45684;48.358;10.746;2023-01-31T07:22:11;97125.97;;;1.13;100.00
10014;BME280;45684;48.358;10.746;2023-01-31T07:24:39;97134.44;;;1.10;100.00
10014;BME280;45684;48.358;10.746;2023-01-31T07:27:11;97139.50;;;1.11;100.00
10014;BME280;45684;48.358;10.746;2023-01-31T07:29:39;97126.44;;;1.10;100.00
10014;BME280;45684;48.358;10.746;2023-01-31T07:32:07;97143.91;;;1.06;100.00
10014;BME280;45684;48.358;10.746;2023-01-31T07:34:35;97143.91;;;1.06;100.00
10014;BME280;45684;48.358;10.746;2023-01-31T07:37:03;97142.31;;;1.05;100.00
10014;BME280;45684;48.358;10.746;2023-01-31T07:39:31;97134.88;;;1.07;100.00
10014;BME280;45684;48.358;10.746;2023-01-31T07:41:59;97132.81;;;1.09;100.00
10014;BME280;45684;48.358;10.746;2023-01-31T07:44:28;97129.44;;;1.13;100.00
10014;BME280;45684;48.358;10.746;2023-01-31T07:46:57;97138.25;;;1.14;100.00
10014;BME280;45684;48.358;10.746;2023-01-31T07:49:31;97128.16;;;1.16;100.00
10014;BME280;45684;48.358;10.746;2023-01-31T07:52:00;97127.16;;;1.17;100.00
10014;BME280;45684;48.358;10.746;2023-01-31T07:54:28;97128.88;;;1.23;100.00
10014;BME280;45684;48.358;10.746;2023-01-31T07:56:56;97133.75;;;1.26;100.00
10014;BME280;45684;48.358;10.746;2023-01-31T07:59:37;97117.50;;;1.27;100.00
10014;BME280;45684;48.358;10.746;2023-01-31T08:02:09;97123.75;;;1.33;100.00
10014;BME280;45684;48.358;10.746;2023-01-31T08:04:57;97116.31;;;1.35;100.00
10014;BME280;45684;48.358;10.746;2023-01-31T08:07:27;97123.06;;;1.38;100.00
10014;BME280;45684;48.358;10.746;2023-01-31T08:09:56;97115.97;;;1.43;100.00
10014;BME280;45684;48.358;10.746;2023-01-31T08:12:24;97108.78;;;1.44;100.00
10014;BME280;45684;48.358;10.746;2023-01-31T08:14:53;97110.75;;;1.48;100.00
10014;BME280;45684;48.358;10.746;2023-01-31T08:17:24;97117.25;;;1.52;100.00
10014;BME280;45684;48.358;10.746;2023-01-31T08:19:52;97120.00;;;1.58;100.00
10014;BME280;45684;48.358;10.746;2023-01-31T08:22:20;97129.84;;;1.57;100.00
10014;BME280;45684;48.358;10.746;2023-01-31T08:24:48;97126.50;;;1.62;100.00
10014;BME280;45684;48.358;10.746;2023-01-31T08:27:16;97134.50;;;1.62;100.00
10014;BME280;45684;48.358;10.746;2023-01-31T08:29:45;97132.97;;;1.66;100.00
10014;BME280;45684;48.358;10.746;2023-01-31T08:32:17;97135.09;;;1.64;100.00
10014;BME280;45684;48.358;10.746;2023-01-31T08:34:45;97128.94;;;1.63;100.00
10014;BME280;45684;48.358;10.746;2023-01-31T08:37:13;97133.31;;;1.69;100.00
10014;BME280;45684;48.358;10.746;2023-01-31T08:39:45;97133.53;;;1.79;100.00
10014;BME280;45684;48.358;10.746;2023-01-31T08:42:14;97130.00;;;1.91;100.00
10014;BME280;45684;48.358;10.746;2023-01-31T08:44:41;97133.44;;;2.03;100.00
10014;BME280;45684;48.358;10.746;2023-01-31T08:47:09;97134.69;;;2.12;100.00
10014;BME280;45684;48.358;10.746;2023-01-31T08:49:38;97132.56;;;2.26;100.00
10014;BME280;45684;48.358;10.746;2023-01-31T08:52:07;97128.88;;;2.44;100.00
10014;BME280;45684;48.358;10.746;2023-01-31T08:54:35;97136.00;;;2.55;100.00
10014;BME280;45684;48.358;10.746;2023-01-31T08:57:02;97134.81;;;2.63;100.00
10014;BME280;45684;48.358;10.746;2023-01-31T08:59:30;97148.50;;;2.66;100.00
10014;BME280;45684;48.358;10.746;2023-01-31T09:01:58;97153.50;;;2.63;100.00
10014;BME280;45684;48.358;10.746;2023-01-31T09:04:26;97145.41;;;2.58;100.00
10014;BME280;45684;48.358;10.746;2023-01-31T09:06:58;97152.50;;;2.52;100.00
10014;BME280;45684;48.358;10.746;2023-01-31T09:09:26;97149.59;;;2.53;100.00
10014;BME280;45684;48.358;10.746;2023-01-31T09:11:56;97153.78;;;2.49;100.00
10014;BME280;45684;48.358;10.746;2023-01-31T09:14:25;97148.78;;;2.53;100.00
10014;BME280;45684;48.358;10.746;2023-01-31T09:16:53;97151.78;;;2.57;100.00
10014;BME280;45684;48.358;10.746;2023-01-31T09:19:21;97151.22;;;2.54;100.00
10014;BME280;45684;48.358;10.746;2023-01-31T09:21:49;97149.44;;;2.60;100.00
10014;BME280;45684;48.358;10.746;2023-01-31T09:24:18;97157.22;;;2.62;100.00
10014;BME280;45684;48.358;10.746;2023-01-31T09:26:46;97153.84;;;2.66;100.00
10014;BME280;45684;48.358;10.746;2023-01-31T09:29:15;97153.19;;;2.76;100.00
10014;BME280;45684;48.358;10.746;2023-01-31T09:31:43;97160.16;;;2.77;100.00
10014;BME280;45684;48.358;10.746;2023-01-31T09:34:11;97154.63;;;2.84;100.00
10014;BME280;45684;48.358;10.746;2023-01-31T09:36:39;97152.56;;;2.86;100.00
10014;BME280;45684;48.358;10.746;2023-01-31T09:39:10;97151.31;;;2.93;100.00
10014;BME280;45684;48.358;10.746;2023-01-31T09:41:42;97144.44;;;2.97;100.00
10014;BME280;45684;48.358;10.746;2023-01-31T09:44:14;97140.56;;;3.05;100.00
10014;BME280;45684;48.358;10.746;2023-01-31T09:46:51;97143.16;;;3.00;100.00
10014;BME280;45684;48.358;10.746;2023-01-31T09:49:24;97152.59;;;3.07;100.00
10014;BME280;45684;48.358;10.746;2023-01-31T09:51:57;97158.06;;;3.13;100.00
10014;BME280;45684;48.358;10.746;2023-01-31T09:54:28;97156.50;;;3.17;100.00
10014;BME280;45684;48.358;10.746;2023-01-31T09:57:04;97154.25;;;3.09;100.00
10014;BME280;45684;48.358;10.746;2023-01-31T09:59:44;97167.91;;;3.12;100.00
10014;BME280;45684;48.358;10.746;2023-01-31T10:05:32;97148.56;;;3.22;100.00
10014;BME280;45684;48.358;10.746;2023-01-31T10:08:14;97151.56;;;3.25;100.00
10014;BME280;45684;48.358;10.746;2023-01-31T10:10:47;97152.69;;;3.29;100.00
10014;BME280;45684;48.358;10.746;2023-01-31T10:13:22;97136.50;;;3.36;100.00
10014;BME280;45684;48.358;10.746;2023-01-31T10:15:58;97142.44;;;3.43;100.00
10014;BME280;45684;48.358;10.746;2023-01-31T10:18:29;97141.31;;;3.39;100.00
10014;BME280;45684;48.358;10.746;2023-01-31T10:21:03;97147.81;;;3.43;100.00
10014;BME280;45684;48.358;10.746;2023-01-31T10:23:38;97123.81;;;3.48;100.00
10014;BME280;45684;48.358;10.746;2023-01-31T10:26:11;97129.34;;;3.42;100.00
10014;BME280;45684;48.358;10.746;2023-01-31T10:28:47;97119.59;;;3.52;100.00
10014;BME280;45684;48.358;10.746;2023-01-31T10:31:26;97121.25;;;3.58;100.00
10014;BME280;45684;48.358;10.746;2023-01-31T10:33:59;97105.00;;;3.60;100.00
10014;BME280;45684;48.358;10.746;2023-01-31T10:36:33;97105.06;;;3.65;100.00
10014;BME280;45684;48.358;10.746;2023-01-31T10:39:05;97104.03;;;3.71;100.00
10014;BME280;45684;48.358;10.746;2023-01-31T10:41:40;97109.72;;;3.75;100.00
10014;BME280;45684;48.358;10.746;2023-01-31T10:44:19;97103.56;;;3.74;100.00
10014;BME280;45684;48.358;10.746;2023-01-31T10:46:51;97108.91;;;3.74;100.00
10014;BME280;45684;48.358;10.746;2023-01-31T10:49:22;97101.69;;;3.75;100.00
10014;BME280;45684;48.358;10.746;2023-01-31T10:51:59;97098.44;;;3.73;100.00
10014;BME280;45684;48.358;10.746;2023-01-31T10:54:41;97089.66;;;3.77;100.00
10014;BME280;45684;48.358;10.746;2023-01-31T10:57:14;97085.16;;;3.78;100.00
10014;BME280;45684;48.358;10.746;2023-01-31T10:59:48;97069.09;;;3.78;100.00
10014;BME280;45684;48.358;10.746;2023-01-31T11:02:19;97069.59;;;3.75;100.00
10014;BME280;45684;48.358;10.746;2023-01-31T11:04:50;97085.31;;;3.71;100.00
10014;BME280;45684;48.358;10.746;2023-01-31T11:07:20;97070.13;;;3.77;100.00
10014;BME280;45684;48.358;10.746;2023-01-31T11:09:49;97052.53;;;3.81;100.00
10014;BME280;45684;48.358;10.746;2023-01-31T11:12:20;97051.25;;;3.83;100.00
10014;BME280;45684;48.358;10.746;2023-01-31T11:15:06;97049.69;;;3.88;100.00
10014;BME280;45684;48.358;10.746;2023-01-31T11:17:36;97052.63;;;3.91;100.00
10014;BME280;45684;48.358;10.746;2023-01-31T11:20:06;97052.16;;;3.94;100.00
10014;BME280;45684;48.358;10.746;2023-01-31T11:22:45;97050.09;;;4.01;100.00
10014;BME280;45684;48.358;10.746;2023-01-31T11:25:17;97044.16;;;3.99;100.00
10014;BME280;45684;48.358;10.746;2023-01-31T11:27:47;97041.81;;;4.03;100.00
10014;BME280;45684;48.358;10.746;2023-01-31T11:30:26;97024.94;;;4.02;100.00
10014;BME280;45684;48.358;10.746;2023-01-31T11:32:56;97023.56;;;4.00;100.00
10014;BME280;45684;48.358;10.746;2023-01-31T11:35:27;97011.25;;;3.99;100.00
10014;BME280;45684;48.358;10.746;2023-01-31T11:37:56;96995.19;;;3.99;100.00
10014;BME280;45684;48.358;10.746;2023-01-31T11:40:30;96992.97;;;3.91;100.00
10014;BME280;45684;48.358;10.746;2023-01-31T11:43:00;96991.84;;;3.87;100.00
10014;BME280;45684;48.358;10.746;2023-01-31T11:45:31;96995.38;;;3.87;100.00
10014;BME280;45684;48.358;10.746;2023-01-31T11:48:05;96980.63;;;3.84;100.00
10014;BME280;45684;48.358;10.746;2023-01-31T11:50:39;96989.13;;;3.81;100.00
10014;BME280;45684;48.358;10.746;2023-01-31T11:53:16;96980.41;;;3.91;100.00
10014;BME280;45684;48.358;10.746;2023-01-31T11:55:46;96982.88;;;3.98;100.00
10014;BME280;45684;48.358;10.746;2023-01-31T11:58:18;97001.22;;;4.11;100.00
10014;BME280;45684;48.358;10.746;2023-01-31T12:00:55;96995.91;;;4.16;100.00
10014;BME280;45684;48.358;10.746;2023-01-31T12:03:24;96998.53;;;4.11;100.00
10014;BME280;45684;48.358;10.746;2023-01-31T12:05:59;96993.25;;;4.21;100.00
10014;BME280;45684;48.358;10.746;2023-01-31T12:08:29;96995.91;;;4.16;100.00
10014;BME280;45684;48.358;10.746;2023-01-31T12:10:57;96986.44;;;4.08;100.00
10014;BME280;45684;48.358;10.746;2023-01-31T12:13:25;96977.84;;;4.01;100.00
10014;BME280;45684;48.358;10.746;2023-01-31T12:15:58;96985.59;;;4.03;100.00
10014;BME280;45684;48.358;10.746;2023-01-31T12:18:54;96979.22;;;4.09;100.00
10014;BME280;45684;48.358;10.746;2023-01-31T12:21:40;96973.91;;;4.14;100.00
10014;BME280;45684;48.358;10.746;2023-01-31T12:24:18;96968.81;;;4.13;100.00
10014;BME280;45684;48.358;10.746;2023-01-31T12:26:54;96968.38;;;4.21;100.00
10014;BME280;45684;48.358;10.746;2023-01-31T12:29:45;96962.03;;;4.32;100.00
10014;BME280;45684;48.358;10.746;2023-01-31T12:32:32;96944.91;;;4.38;100.00
10014;BME280;45684;48.358;10.746;2023-01-31T12:35:21;96943.97;;;4.54;100.00
10014;BME280;45684;48.358;10.746;2023-01-31T12:38:02;96925.84;;;4.67;100.00
10014;BME280;45684;48.358;10.746;2023-01-31T12:40:38;96929.91;;;4.79;100.00
10014;BME280;45684;48.358;10.746;2023-01-31T12:43:17;96936.72;;;4.97;100.00
10014;BME280;45684;48.358;10.746;2023-01-31T12:46:00;96940.75;;;5.00;100.00
10014;BME280;45684;48.358;10.746;2023-01-31T12:51:41;96934.00;;;4.92;100.00
10014;BME280;45684;48.358;10.746;2023-01-31T12:54:34;96933.72;;;4.94;100.00
10014;BME280;45684;48.358;10.746;2023-01-31T12:57:17;96937.75;;;4.91;100.00
10014;BME280;45684;48.358;10.746;2023-01-31T12:59:55;96930.78;;;4.85;100.00
10014;BME280;45684;48.358;10.746;2023-01-31T13:02:38;96923.53;;;4.85;100.00
10014;BME280;45684;48.358;10.746;2023-01-31T13:05:18;96928.81;;;4.75;100.00
10014;BME280;45684;48.358;10.746;2023-01-31T13:07:51;96909.03;;;4.76;100.00
10014;BME280;45684;48.358;10.746;2023-01-31T13:10:32;96900.19;;;4.76;100.00
10014;BME280;45684;48.358;10.746;2023-01-31T13:13:02;96902.34;;;4.84;100.00
10014;BME280;45684;48.358;10.746;2023-01-31T13:15:39;96892.41;;;4.79;100.00
10014;BME280;45684;48.358;10.746;2023-01-31T13:18:11;96885.44;;;4.78;100.00
10014;BME280;45684;48.358;10.746;2023-01-31T13:20:43;96894.75;;;4.71;100.00
10014;BME280;45684;48.358;10.746;2023-01-31T13:23:17;96896.06;;;4.58;100.00